createdAt,value
2022-11-28T00:01:36.219Z,74.15
2022-11-28T00:04:03.978Z,74.15
2022-11-28T00:06:31.182Z,74.57
2022-11-28T00:08:59.807Z,74.42
2022-11-28T00:11:27.063Z,74.23
2022-11-28T00:13:54.373Z,74.33
2022-11-28T00:16:22.971Z,74.23
2022-11-28T00:18:55.056Z,74.12
2022-11-28T00:21:23.513Z,74.36
2022-11-28T00:23:51.366Z,74.62
2022-11-28T00:26:32.532Z,74.49
2022-11-28T00:29:00.752Z,74.31
2022-11-28T00:31:31.431Z,74.60
2022-11-28T00:33:59.141Z,74.52
2022-11-28T00:36:26.495Z,74.33
2022-11-28T00:38:54.480Z,74.45
2022-11-28T00:41:25.412Z,74.53
2022-11-28T00:43:53.682Z,74.62
2022-11-28T00:46:22.140Z,74.43
2022-11-28T00:48:50.337Z,74.54
2022-11-28T00:51:21.609Z,74.43
2022-11-28T00:53:50.991Z,74.50
2022-11-28T00:56:28.182Z,74.41
2022-11-28T00:58:56.459Z,74.55
2022-11-28T01:01:27.136Z,74.66
2022-11-28T01:03:57.010Z,74.47
2022-11-28T01:06:28.044Z,74.75
2022-11-28T01:08:56.721Z,74.80
2022-11-28T01:11:24.667Z,74.68
2022-11-28T01:13:54.023Z,74.56
2022-11-28T01:16:21.488Z,74.46
2022-11-28T01:18:49.014Z,74.58
2022-11-28T01:21:16.854Z,74.68
2022-11-28T01:23:44.952Z,74.65
2022-11-28T01:26:21.123Z,74.83
2022-11-28T01:28:48.906Z,74.66
2022-11-28T01:31:19.639Z,74.58
2022-11-28T01:33:47.276Z,74.97
2022-11-28T01:36:16.167Z,74.79
2022-11-28T01:38:43.651Z,74.49
2022-11-28T01:41:12.414Z,74.53
2022-11-28T01:43:58.025Z,74.83
2022-11-28T01:46:25.101Z,74.84
2022-11-28T01:48:53.333Z,74.76
2022-11-28T01:51:21.634Z,74.83
2022-11-28T01:53:49.401Z,74.76
2022-11-28T01:56:20.942Z,74.58
2022-11-28T01:58:52.965Z,74.74
2022-11-28T02:01:21.250Z,74.70
2022-11-28T02:03:50.974Z,74.68
2022-11-28T02:06:22.468Z,74.60
2022-11-28T02:08:53.569Z,74.81
2022-11-28T02:11:39.516Z,74.58
2022-11-28T02:14:44.013Z,74.50
2022-11-28T02:17:32.847Z,74.39
2022-11-28T02:20:21.503Z,74.39
2022-11-28T02:22:57.496Z,74.53
2022-11-28T02:25:55.365Z,74.51
2022-11-28T02:28:54.481Z,74.37
2022-11-28T02:31:40.707Z,74.41
2022-11-28T02:34:18.644Z,74.18
2022-11-28T02:36:52.184Z,74.21
2022-11-28T02:39:35.010Z,74.17
2022-11-28T02:42:17.855Z,74.11
2022-11-28T02:45:04.839Z,74.08
2022-11-28T02:47:41.522Z,74.19
2022-11-28T02:50:18.720Z,74.09
2022-11-28T02:52:52.093Z,74.25
2022-11-28T02:55:19.963Z,73.97
2022-11-28T02:57:50.241Z,74.13
2022-11-28T03:00:28.144Z,74.06
2022-11-28T03:03:21.978Z,74.07
2022-11-28T03:06:18.117Z,74.16
2022-11-28T03:08:53.549Z,74.23
2022-11-28T03:11:35.476Z,74.55
2022-11-28T03:14:32.810Z,74.36
2022-11-28T03:17:18.906Z,74.49
2022-11-28T03:20:08.683Z,74.38
2022-11-28T03:22:49.566Z,74.42
2022-11-28T03:25:27.783Z,74.71
2022-11-28T03:28:07.620Z,74.40
2022-11-28T03:30:57.603Z,74.64
2022-11-28T03:33:28.138Z,74.36
2022-11-28T03:36:06.352Z,74.87
2022-11-28T03:38:40.989Z,74.62
2022-11-28T03:41:22.977Z,75.38
2022-11-28T03:43:54.531Z,75.14
2022-11-28T03:46:26.746Z,75.17
2022-11-28T03:48:59.804Z,75.28
2022-11-28T03:51:38.114Z,75.07
2022-11-28T03:54:20.519Z,75.09
2022-11-28T03:56:54.426Z,75.11
2022-11-28T03:59:57.009Z,75.02
2022-11-28T04:02:37.708Z,75.24
2022-11-28T04:05:25.201Z,75.02
2022-11-28T04:07:58.388Z,75.30
2022-11-28T04:10:41.489Z,75.10
2022-11-28T04:13:16.174Z,75.41
2022-11-28T04:16:09.113Z,75.45
2022-11-28T04:18:56.367Z,75.23
2022-11-28T04:21:27.878Z,75.40
2022-11-28T04:24:01.184Z,75.16
2022-11-28T04:26:34.171Z,75.23
2022-11-28T04:29:05.507Z,75.14
2022-11-28T04:31:34.584Z,75.51
2022-11-28T04:34:06.366Z,75.11
2022-11-28T04:36:37.389Z,75.41
2022-11-28T04:39:09.289Z,75.21
2022-11-28T04:41:41.354Z,75.11
2022-11-28T04:44:19.768Z,75.20
2022-11-28T04:46:52.343Z,75.27
2022-11-28T04:49:19.685Z,75.46
2022-11-28T04:52:04.969Z,75.46
2022-11-28T04:54:43.040Z,75.60
2022-11-28T04:57:22.850Z,75.51
2022-11-28T04:59:51.013Z,75.35
2022-11-28T05:02:20.769Z,75.18
2022-11-28T05:04:47.991Z,75.53
2022-11-28T05:07:15.462Z,75.45
2022-11-28T05:09:42.765Z,75.68
2022-11-28T05:12:10.253Z,75.33
2022-11-28T05:14:37.660Z,75.54
2022-11-28T05:17:05.647Z,75.64
2022-11-28T05:19:32.990Z,75.65
2022-11-28T05:22:00.709Z,75.57
2022-11-28T05:24:32.102Z,75.56
2022-11-28T05:26:59.979Z,75.51
2022-11-28T05:29:27.089Z,75.52
2022-11-28T05:31:55.041Z,75.70
2022-11-28T05:34:22.912Z,75.68
2022-11-28T05:36:50.623Z,75.63
2022-11-28T05:39:18.598Z,75.68
2022-11-28T05:41:45.815Z,75.55
2022-11-28T05:44:13.099Z,75.51
2022-11-28T05:46:40.528Z,75.48
2022-11-28T05:49:08.122Z,75.40
2022-11-28T05:51:35.542Z,75.53
2022-11-28T05:54:02.968Z,75.75
2022-11-28T05:56:30.257Z,75.68
2022-11-28T05:58:57.578Z,75.80
2022-11-28T06:01:27.825Z,75.79
2022-11-28T06:04:00.329Z,75.66
2022-11-28T06:06:29.925Z,75.83
2022-11-28T06:08:57.984Z,75.51
2022-11-28T06:11:28.561Z,75.79
2022-11-28T06:13:56.562Z,75.64
2022-11-28T06:16:29.095Z,75.94
2022-11-28T06:18:59.122Z,75.82
2022-11-28T06:21:27.495Z,75.90
2022-11-28T06:23:55.826Z,75.98
2022-11-28T06:26:25.255Z,75.70
2022-11-28T06:28:52.840Z,75.70
2022-11-28T06:31:24.022Z,75.56
2022-11-28T06:33:51.953Z,75.60
2022-11-28T06:36:21.122Z,75.91
2022-11-28T06:38:49.835Z,75.89
2022-11-28T06:41:19.588Z,75.80
2022-11-28T06:43:47.534Z,75.78
2022-11-28T06:46:17.996Z,75.64
2022-11-28T06:48:47.348Z,75.97
2022-11-28T06:51:15.301Z,76.02
2022-11-28T06:53:43.878Z,75.90
2022-11-28T06:56:18.214Z,76.06
2022-11-28T06:58:46.591Z,76.17
2022-11-28T07:01:19.031Z,76.11
2022-11-28T07:03:47.637Z,75.80
2022-11-28T07:06:17.157Z,76.06
2022-11-28T07:08:44.616Z,76.02
2022-11-28T07:11:17.572Z,76.08
2022-11-28T07:13:48.729Z,75.86
2022-11-28T07:16:22.261Z,76.08
2022-11-28T07:18:50.531Z,76.16
2022-11-28T07:21:18.702Z,75.85
2022-11-28T07:23:46.774Z,75.85
2022-11-28T07:26:16.592Z,76.04
2022-11-28T07:28:45.549Z,75.81
2022-11-28T07:31:18.592Z,75.97
2022-11-28T07:33:48.075Z,75.76
2022-11-28T07:36:17.789Z,76.04
2022-11-28T07:38:48.620Z,76.00
2022-11-28T07:41:15.870Z,75.80
2022-11-28T07:43:44.662Z,75.69
2022-11-28T07:46:14.915Z,75.77
2022-11-28T07:48:42.463Z,75.55
2022-11-28T07:51:12.550Z,75.42
2022-11-28T07:53:41.663Z,75.46
2022-11-28T07:56:15.257Z,75.25
2022-11-28T07:58:45.146Z,75.23
2022-11-28T08:01:24.126Z,75.15
2022-11-28T08:03:53.429Z,74.83
2022-11-28T08:06:23.140Z,75.19
2022-11-28T08:08:52.712Z,75.21
2022-11-28T08:11:21.847Z,74.97
2022-11-28T08:13:53.803Z,75.00
2022-11-28T08:16:26.110Z,74.82
2022-11-28T08:18:55.183Z,74.60
2022-11-28T08:21:29.092Z,74.63
2022-11-28T08:23:59.422Z,74.86
2022-11-28T08:26:30.560Z,74.39
2022-11-28T08:28:59.154Z,74.50
2022-11-28T08:31:31.691Z,74.53
2022-11-28T08:34:01.562Z,74.23
2022-11-28T08:36:29.508Z,74.34
2022-11-28T08:39:09.843Z,73.99
2022-11-28T08:41:44.813Z,74.27
2022-11-28T08:44:12.386Z,73.93
2022-11-28T08:46:39.421Z,73.92
2022-11-28T08:49:06.700Z,73.85
2022-11-28T08:51:34.247Z,73.92
2022-11-28T08:54:01.112Z,73.88
2022-11-28T08:56:29.376Z,73.76
2022-11-28T08:58:57.918Z,73.82
2022-11-28T09:01:27.641Z,73.67
2022-11-28T09:03:56.346Z,73.77
2022-11-28T09:06:25.398Z,73.51
2022-11-28T09:08:55.082Z,73.46
2022-11-28T09:11:24.478Z,73.23
2022-11-28T09:13:52.426Z,73.03
2022-11-28T09:16:20.358Z,72.86
2022-11-28T09:18:47.667Z,73.03
2022-11-28T09:21:15.862Z,72.70
2022-11-28T09:23:44.522Z,72.45
2022-11-28T09:26:14.629Z,72.06
2022-11-28T09:28:41.965Z,71.90
2022-11-28T09:31:09.506Z,71.70
2022-11-28T09:33:37.346Z,71.16
2022-11-28T09:36:09.106Z,70.67
2022-11-28T09:38:37.153Z,70.26
2022-11-28T09:41:22.320Z,70.05
2022-11-28T09:43:54.916Z,70.27
2022-11-28T09:46:29.487Z,70.20
2022-11-28T09:48:58.426Z,70.33
2022-11-28T09:51:34.790Z,70.18
2022-11-28T09:54:17.818Z,70.04
2022-11-28T09:56:50.086Z,69.57
2022-11-28T09:59:22.965Z,69.32
2022-11-28T10:02:05.794Z,69.07
2022-11-28T10:04:43.254Z,68.93
2022-11-28T10:07:25.163Z,68.72
2022-11-28T10:10:03.823Z,68.40
2022-11-28T10:12:46.517Z,68.28
2022-11-28T10:15:27.076Z,68.14
2022-11-28T10:18:28.063Z,67.92
2022-11-28T10:21:00.848Z,67.90
2022-11-28T10:23:57.637Z,67.98
2022-11-28T10:26:36.126Z,67.85
2022-11-28T10:29:11.911Z,67.29
2022-11-28T10:31:44.818Z,66.68
2022-11-28T10:34:14.373Z,66.21
2022-11-28T10:36:57.500Z,65.82
2022-11-28T10:39:26.046Z,65.56
2022-11-28T10:42:12.253Z,65.17
2022-11-28T10:44:55.814Z,64.97
2022-11-28T10:47:42.922Z,64.68
2022-11-28T10:50:32.559Z,64.34
2022-11-28T10:53:01.710Z,64.30
2022-11-28T10:55:57.280Z,64.08
2022-11-28T10:58:32.642Z,63.59
2022-11-28T11:01:00.492Z,63.46
2022-11-28T11:03:32.857Z,63.13
2022-11-28T11:06:00.195Z,62.76
2022-11-28T11:08:29.303Z,62.78
2022-11-28T11:11:24.233Z,62.68
2022-11-28T11:13:58.893Z,62.99
2022-11-28T11:16:26.305Z,62.90
2022-11-28T11:18:55.101Z,62.65
2022-11-28T11:21:26.640Z,62.35
2022-11-28T11:24:16.926Z,62.42
2022-11-28T11:26:46.632Z,62.07
2022-11-28T11:29:24.083Z,62.19
2022-11-28T11:31:53.628Z,62.16
2022-11-28T11:34:23.765Z,61.97
2022-11-28T11:36:51.719Z,61.80
2022-11-28T11:39:25.422Z,61.72
2022-11-28T11:42:11.372Z,61.74
2022-11-28T11:44:38.529Z,61.55
2022-11-28T11:47:07.546Z,61.70
2022-11-28T11:49:34.135Z,61.42
2022-11-28T11:52:27.402Z,61.28
2022-11-28T11:55:11.634Z,61.16
2022-11-28T11:57:43.004Z,61.08
2022-11-28T12:00:09.622Z,61.05
2022-11-28T12:02:55.177Z,61.16
2022-11-28T12:05:28.507Z,60.47
2022-11-28T12:08:16.930Z,60.61
2022-11-28T12:11:01.153Z,60.42
2022-11-28T12:13:27.941Z,60.31
2022-11-28T12:16:07.008Z,60.22
2022-11-28T12:19:01.885Z,60.05
2022-11-28T12:21:28.661Z,60.50
2022-11-28T12:24:01.544Z,60.32
2022-11-28T12:26:40.412Z,60.06
2022-11-28T12:29:30.121Z,60.29
2022-11-28T12:32:12.042Z,60.10
2022-11-28T12:35:15.442Z,60.22
2022-11-28T12:38:11.731Z,60.16
2022-11-28T12:41:02.104Z,60.19
2022-11-28T12:44:06.166Z,60.19
2022-11-28T12:47:02.741Z,60.17
2022-11-28T12:49:52.466Z,60.29
2022-11-28T12:52:56.053Z,60.15
2022-11-28T12:55:40.923Z,60.12
2022-11-28T12:58:21.957Z,60.19
2022-11-28T13:01:12.345Z,60.09
2022-11-28T13:04:09.722Z,60.03
2022-11-28T13:06:46.740Z,59.94
2022-11-28T13:09:19.049Z,59.92
2022-11-28T13:12:20.436Z,59.77
2022-11-28T13:14:57.654Z,59.71
2022-11-28T13:17:54.313Z,59.62
2022-11-28T13:20:42.181Z,59.58
2022-11-28T13:23:21.471Z,59.23
2022-11-28T13:25:52.796Z,59.34
2022-11-28T13:28:32.504Z,58.94
2022-11-28T13:31:25.777Z,59.56
2022-11-28T13:33:57.302Z,59.10
2022-11-28T13:39:49.646Z,59.25
2022-11-28T13:43:03.989Z,59.31
2022-11-28T13:45:39.165Z,59.84
2022-11-28T13:48:57.366Z,59.91
2022-11-28T13:51:33.928Z,60.24
2022-11-28T13:54:21.941Z,60.67
2022-11-28T13:57:22.691Z,60.82
2022-11-28T13:59:59.934Z,61.26
2022-11-28T14:02:50.103Z,61.31
2022-11-28T14:05:26.413Z,61.50
2022-11-28T14:07:55.952Z,61.70
2022-11-28T14:10:28.609Z,62.00
2022-11-28T14:12:58.526Z,61.96
2022-11-28T14:15:56.919Z,62.19
2022-11-28T14:18:59.255Z,62.37
2022-11-28T14:21:39.052Z,62.44
2022-11-28T14:24:27.734Z,62.59
2022-11-28T14:26:59.958Z,62.79
2022-11-28T14:29:50.149Z,63.07
2022-11-28T14:32:34.830Z,63.01
2022-11-28T14:35:03.010Z,63.23
2022-11-28T14:37:30.129Z,63.41
2022-11-28T14:39:57.980Z,63.39
2022-11-28T14:42:58.356Z,63.38
2022-11-28T14:45:33.159Z,63.72
2022-11-28T14:48:18.009Z,63.65
2022-11-28T14:50:47.786Z,63.89
2022-11-28T14:53:38.194Z,63.83
2022-11-28T14:56:25.994Z,63.99
2022-11-28T14:58:57.143Z,64.11
2022-11-28T15:01:35.572Z,64.27
2022-11-28T15:04:36.583Z,64.49
2022-11-28T15:07:07.519Z,64.73
2022-11-28T15:10:15.170Z,64.64
2022-11-28T15:12:44.757Z,64.72
2022-11-28T15:15:14.053Z,64.59
2022-11-28T15:17:43.362Z,64.90
2022-11-28T15:20:22.189Z,64.76
2022-11-28T15:22:49.460Z,64.68
2022-11-28T15:25:25.260Z,65.07
2022-11-28T15:27:53.051Z,65.16
2022-11-28T15:30:26.673Z,65.28
2022-11-28T15:33:00.018Z,65.34
2022-11-28T15:35:27.790Z,65.58
2022-11-28T15:37:57.370Z,65.50
2022-11-28T15:40:36.188Z,65.77
2022-11-28T15:43:09.542Z,65.85
2022-11-28T15:45:42.417Z,65.70
2022-11-28T15:48:27.199Z,65.77
2022-11-28T15:50:54.505Z,65.94
2022-11-28T15:53:21.833Z,66.24
2022-11-28T15:56:14.768Z,66.04
2022-11-28T15:58:43.594Z,65.90
2022-11-28T16:01:20.448Z,66.30
2022-11-28T16:03:47.022Z,66.50
2022-11-28T16:06:14.122Z,66.44
2022-11-28T16:08:49.784Z,66.70
2022-11-28T16:11:19.818Z,66.87
2022-11-28T16:13:48.005Z,66.92
2022-11-28T16:16:19.796Z,66.65
2022-11-28T16:18:54.398Z,66.92
2022-11-28T16:21:25.267Z,66.86
2022-11-28T16:23:52.106Z,67.07
2022-11-28T16:26:43.869Z,67.31
2022-11-28T16:29:14.762Z,67.18
2022-11-28T16:31:44.524Z,67.11
2022-11-28T16:34:15.066Z,67.45
2022-11-28T16:36:50.086Z,67.68
2022-11-28T16:39:17.844Z,67.37
2022-11-28T16:42:04.823Z,67.70
2022-11-28T16:44:33.604Z,67.67
2022-11-28T16:47:00.836Z,67.84
2022-11-28T16:49:43.348Z,67.85
2022-11-28T16:52:22.370Z,67.87
2022-11-28T16:54:54.928Z,67.80
2022-11-28T16:57:22.534Z,68.04
2022-11-28T16:59:52.897Z,67.72
2022-11-28T17:02:25.124Z,68.29
2022-11-28T17:04:53.260Z,68.22
2022-11-28T17:07:23.604Z,68.25
2022-11-28T17:09:50.991Z,68.09
2022-11-28T17:12:29.790Z,68.57
2022-11-28T17:14:56.941Z,68.69
2022-11-28T17:17:24.129Z,68.67
2022-11-28T17:19:51.113Z,68.60
2022-11-28T17:22:24.778Z,68.79
2022-11-28T17:24:58.205Z,68.88
2022-11-28T17:27:24.802Z,68.68
2022-11-28T17:29:51.582Z,68.87
2022-11-28T17:32:18.824Z,69.23
2022-11-28T17:34:48.234Z,69.04
2022-11-28T17:37:15.204Z,69.03
2022-11-28T17:40:01.909Z,69.28
2022-11-28T17:42:28.516Z,69.28
2022-11-28T17:44:55.581Z,69.46
2022-11-28T17:47:23.934Z,69.18
2022-11-28T17:49:50.787Z,69.20
2022-11-28T17:52:20.028Z,69.34
2022-11-28T17:54:46.680Z,69.38
2022-11-28T17:57:13.345Z,69.29
2022-11-28T17:59:40.030Z,69.17
2022-11-28T18:02:07.113Z,69.33
2022-11-28T18:04:37.708Z,69.83
2022-11-28T18:07:04.540Z,69.58
2022-11-28T18:09:31.208Z,69.80
2022-11-28T18:11:57.806Z,69.73
2022-11-28T18:14:24.499Z,69.70
2022-11-28T18:16:51.109Z,69.71
2022-11-28T18:19:17.854Z,69.82
2022-11-28T18:21:44.685Z,69.60
2022-11-28T18:24:11.255Z,70.01
2022-11-28T18:26:38.153Z,70.05
2022-11-28T18:29:04.981Z,69.80
2022-11-28T18:31:31.638Z,70.13
2022-11-28T18:34:02.232Z,70.07
2022-11-28T18:36:30.775Z,70.24
2022-11-28T18:38:58.782Z,70.28
2022-11-28T18:41:26.293Z,70.19
2022-11-28T18:43:57.120Z,70.31
2022-11-28T18:46:26.032Z,70.40
2022-11-28T18:48:53.258Z,70.34
2022-11-28T18:51:24.058Z,70.46
2022-11-28T18:53:51.965Z,70.72
2022-11-28T18:56:19.805Z,70.50
2022-11-28T18:58:49.059Z,70.41
2022-11-28T19:01:19.581Z,70.56
2022-11-28T19:03:51.568Z,70.77
2022-11-28T19:06:18.973Z,70.51
2022-11-28T19:08:45.936Z,70.51
2022-11-28T19:11:14.862Z,70.65
2022-11-28T19:13:43.401Z,70.47
2022-11-28T19:16:18.788Z,70.85
2022-11-28T19:18:45.711Z,70.44
2022-11-28T19:21:21.371Z,70.92
2022-11-28T19:23:48.440Z,70.84
2022-11-28T19:26:20.186Z,70.87
2022-11-28T19:28:47.238Z,70.61
2022-11-28T19:31:16.576Z,70.72
2022-11-28T19:33:43.972Z,70.93
2022-11-28T19:36:13.397Z,70.92
2022-11-28T19:38:41.559Z,70.66
2022-11-28T19:41:10.626Z,70.78
2022-11-28T19:43:37.400Z,71.16
2022-11-28T19:46:04.636Z,71.17
2022-11-28T19:48:35.002Z,70.93
2022-11-28T19:51:02.214Z,70.79
2022-11-28T19:53:32.330Z,71.49
2022-11-28T19:56:22.711Z,71.07
2022-11-28T19:58:49.636Z,70.97
2022-11-28T20:01:22.255Z,71.46
2022-11-28T20:03:49.979Z,71.24
2022-11-28T20:06:19.422Z,71.57
2022-11-28T20:08:47.562Z,71.35
2022-11-28T20:11:20.752Z,71.49
2022-11-28T20:13:47.844Z,71.33
2022-11-28T20:16:17.226Z,71.51
2022-11-28T20:18:45.745Z,71.49
2022-11-28T20:21:17.625Z,71.52
2022-11-28T20:23:52.789Z,71.56
2022-11-28T20:26:23.024Z,71.84
2022-11-28T20:28:49.858Z,71.93
2022-11-28T20:31:28.604Z,71.85
2022-11-28T20:33:55.658Z,71.65
2022-11-28T20:36:24.830Z,71.58
2022-11-28T20:38:52.555Z,71.93
2022-11-28T20:41:21.330Z,71.84
2022-11-28T20:43:48.384Z,71.99
2022-11-28T20:46:17.776Z,71.95
2022-11-28T20:48:44.589Z,72.20
2022-11-28T20:51:17.814Z,72.25
2022-11-28T20:54:17.308Z,72.05
2022-11-28T20:57:20.839Z,72.23
2022-11-28T20:59:49.488Z,72.34
2022-11-28T21:02:16.265Z,72.00
2022-11-28T21:04:42.932Z,72.26
2022-11-28T21:07:09.874Z,72.24
2022-11-28T21:09:36.537Z,72.21
2022-11-28T21:12:03.312Z,72.51
2022-11-28T21:14:30.228Z,72.31
2022-11-28T21:16:58.139Z,72.45
2022-11-28T21:19:24.874Z,72.46
2022-11-28T21:21:52.037Z,72.52
2022-11-28T21:24:18.911Z,72.45
2022-11-28T21:26:52.652Z,72.39
2022-11-28T21:29:21.103Z,72.68
2022-11-28T21:31:47.862Z,72.42
2022-11-28T21:34:15.587Z,72.32
2022-11-28T21:36:43.205Z,72.51
2022-11-28T21:39:13.427Z,72.31
2022-11-28T21:41:40.248Z,72.17
2022-11-28T21:44:06.999Z,72.19
2022-11-28T21:46:33.773Z,72.43
2022-11-28T21:49:00.462Z,72.08
2022-11-28T21:51:28.758Z,72.12
2022-11-28T21:53:57.600Z,72.19
2022-11-28T21:56:25.746Z,72.02
2022-11-28T21:58:52.905Z,72.06
2022-11-28T22:01:21.243Z,71.89
2022-11-28T22:03:48.959Z,71.98
2022-11-28T22:06:18.557Z,71.76
2022-11-28T22:08:45.481Z,72.01
2022-11-28T22:11:13.406Z,71.63
2022-11-28T22:13:47.817Z,71.55
2022-11-28T22:16:22.740Z,71.73
2022-11-28T22:18:52.135Z,71.67
2022-11-28T22:21:50.671Z,71.86
2022-11-28T22:24:06.716Z,71.66
2022-11-28T22:26:34.026Z,71.51
2022-11-28T22:29:01.091Z,71.42
2022-11-28T22:31:28.013Z,71.45
2022-11-28T22:33:54.640Z,71.63
2022-11-28T22:36:22.554Z,71.57
2022-11-28T22:38:53.895Z,71.66
2022-11-28T22:41:28.311Z,71.87
2022-11-28T22:43:57.488Z,71.51
2022-11-28T22:46:24.536Z,71.47
2022-11-28T22:48:52.018Z,71.68
2022-11-28T22:51:22.123Z,71.39
2022-11-28T22:53:53.424Z,71.62
2022-11-28T22:56:20.279Z,71.45
2022-11-28T22:58:47.451Z,71.69
2022-11-28T23:01:29.179Z,71.39
2022-11-28T23:03:56.463Z,71.29
2022-11-28T23:06:28.906Z,71.48
2022-11-28T23:08:57.954Z,71.56
2022-11-28T23:11:28.831Z,71.71
2022-11-28T23:13:56.223Z,71.44
2022-11-28T23:16:30.669Z,71.54
2022-11-28T23:19:00.171Z,71.60
2022-11-28T23:21:31.321Z,71.71
2022-11-28T23:23:58.180Z,71.75
2022-11-28T23:26:27.160Z,71.58
2022-11-28T23:28:54.348Z,71.37
2022-11-28T23:31:24.587Z,71.59
2022-11-28T23:33:52.142Z,71.79
2022-11-28T23:36:21.916Z,71.53
2022-11-28T23:38:51.065Z,71.58
2022-11-28T23:41:18.359Z,71.53
2022-11-28T23:43:45.375Z,71.68
2022-11-28T23:46:13.443Z,71.56
2022-11-28T23:48:41.048Z,71.61
2022-11-28T23:51:08.610Z,71.81
2022-11-28T23:53:36.302Z,71.84
2022-11-28T23:56:06.967Z,71.68
2022-11-28T23:58:36.858Z,72.07
